KCON/CON METAR and TAF weather

Enter ICAO airport designator
Station Type Date Time Source
KCON METAR 2020/10/20 17:51 UTC NOAA

KCON 201751Z AUTO 16005KT 10SM FEW022 SCT120 19/13 A3021 RMK AO2 SLP232 60000 T01890128 10189 20106 58010


Station Type Date Time Source
KCON Decoded METAR 2020/10/20 17:51 UTC NOAA

Concord, Concord Municipal Airport, NH, United States (KCON) 43-11-43N 071-30-04W 103M
Oct 20, 2020 - 01:51 PM EDT / 2020.10.20 1751 UTC
Wind: from the SSE (160 degrees) at 6 MPH (5 KT):0
Visibility: 10 mile(s):0
Sky conditions: partly cloudy
Temperature: 66.0 F (18.9 C)
Dew Point: 55.0 F (12.8 C)
Relative Humidity: 67%
Pressure (altimeter): 30.21 in. Hg (1023 hPa)
Pressure tendency: 0.03 inches (1.0 hPa) lower than three hours ago
ob: KCON 201751Z AUTO 16005KT 10SM FEW022 SCT120 19/13 A3021 RMK AO2 SLP232 60000 T01890128 10189 20106 58010
cycle: 18

Station Type Date Time Source
KCON TAF 2020/10/20 18:36 UTC NOAA

TAF KCON 201733Z 2018/2118 21008KT P6SM BKN050
FM210200 VRB02KT 2SM BR BKN020
FM211000 VRB03KT 2SM BR VCSH OVC007

Example: see airport list